Terminal Aerodrome Forecast
Issued by NWS

Home | Current Version | Previous Version | Text Only | Print | Product List | Glossary On
Versions: 1 2 3 4 5 6 7 8 9 10 11 12 13 14 15 16 17 18 19 20
585
FTUS41 KBTV 231731
TAFSLK
TAF
KSLK 231731Z 2318/2418 30008G18KT P6SM FEW090
     FM240000 VRB03KT P6SM FEW200
     FM241400 28007KT P6SM FEW100=

USA.gov is the U.S. government's official web portal to all federal, state and local government web resources and services.